Time;durP1;ratioP1;P1;durP2;ratioP2;P2;SDS_P1;SDS_P2;PMS_P1;PMS_P2;Temp;Humidity;BMP_temperature;BMP_pressure;BME280_temperature;BME280_humidity;BME280_pressure;Samples;Min_cycle;Max_cycle;Signal;HPM_P1;HPM_P2
2022/09/11 00:00:59;;;;;;;3.10;1.90;;;19.60;83.60;;;-142.21;100.00;112049.66;5074387;28;20280;-76
2022/09/11 00:03:28;;;;;;;4.23;2.23;;;19.60;83.50;;;-142.21;100.00;112049.66;5075154;28;20205;-78
2022/09/11 00:05:56;;;;;;;1.77;1.40;;;19.60;82.80;;;-142.21;100.00;112049.66;5074738;28;20207;-79
2022/09/11 00:08:23;;;;;;;4.37;1.90;;;19.60;83.20;;;-142.21;100.00;112049.66;5074923;28;20622;-78
2022/09/11 00:10:52;;;;;;;3.20;1.50;;;19.60;82.70;;;-142.21;100.00;112049.66;5074346;28;20705;-78
2022/09/11 00:13:22;;;;;;;3.50;1.40;;;19.60;82.70;;;-142.21;100.00;112049.66;5074070;28;20292;-77
2022/09/11 00:15:51;;;;;;;1.87;1.70;;;19.60;82.70;;;-142.21;100.00;112049.66;5074440;28;20281;-78
2022/09/11 00:18:21;;;;;;;4.10;1.80;;;19.60;82.60;;;-142.21;100.00;112049.66;5074632;28;20221;-77
2022/09/11 00:20:50;;;;;;;2.87;1.60;;;19.50;82.70;;;-142.21;100.00;112049.66;5074653;28;20201;-77
2022/09/11 00:23:19;;;;;;;3.90;1.80;;;19.50;82.80;;;-142.21;100.00;112049.66;5074408;28;20287;-78
2022/09/11 00:25:48;;;;;;;2.67;1.70;;;19.40;83.20;;;-142.21;100.00;112049.66;5074208;28;20204;-77
2022/09/11 00:28:23;;;;;;;3.43;1.80;;;19.30;83.50;;;-142.21;100.00;112049.66;5074060;28;20206;-78
2022/09/11 00:30:58;;;;;;;2.93;1.50;;;19.30;83.80;;;-142.21;100.00;112049.66;5073855;28;20233;-79
2022/09/11 00:33:27;;;;;;;2.53;2.10;;;19.30;83.60;;;-142.21;100.00;112049.66;5074596;28;20842;-77
2022/09/11 00:35:57;;;;;;;3.07;1.77;;;19.40;84.40;;;-142.21;100.00;112049.66;5073640;28;20211;-78
2022/09/11 00:38:25;;;;;;;2.23;1.50;;;19.40;83.50;;;-142.21;100.00;112049.66;5074024;28;20248;-77
2022/09/11 00:40:54;;;;;;;2.80;1.80;;;19.30;83.40;;;-142.21;100.00;112049.66;5073949;28;20217;-77
2022/09/11 00:43:23;;;;;;;3.27;1.70;;;19.30;83.30;;;-142.21;100.00;112049.66;5074427;28;20237;-77
2022/09/11 00:45:58;;;;;;;2.50;1.60;;;19.30;83.50;;;-142.21;100.00;112049.66;5073809;28;20233;-78
2022/09/11 00:48:34;;;;;;;2.20;1.70;;;19.20;83.60;;;-142.21;100.00;112049.66;5074293;28;20439;-76
2022/09/11 00:51:04;;;;;;;2.20;1.67;;;19.10;84.10;;;-142.21;100.00;112049.66;5074490;28;20236;-76
2022/09/11 00:53:37;;;;;;;1.70;1.30;;;19.10;84.20;;;-142.21;100.00;112049.66;5074095;28;20197;-76
2022/09/11 00:56:10;;;;;;;1.80;1.60;;;19.10;84.40;;;-142.21;100.00;112049.66;5073906;28;20654;-76
2022/09/11 00:58:44;;;;;;;4.37;1.73;;;19.10;84.50;;;-142.21;100.00;112049.66;5073109;28;20296;-76
2022/09/11 01:01:13;;;;;;;5.50;1.83;;;19.10;84.70;;;-142.21;100.00;112049.66;5073186;28;20197;-76
2022/09/11 01:03:41;;;;;;;2.60;1.73;;;19.00;84.50;;;-142.21;100.00;112049.66;5072410;28;20266;-78
2022/09/11 01:06:09;;;;;;;3.77;1.70;;;19.10;84.60;;;-142.21;100.00;112049.66;5073647;28;20677;-77
2022/09/11 01:08:36;;;;;;;2.10;1.70;;;19.10;84.60;;;-142.21;100.00;112049.66;5073953;28;20444;-77
2022/09/11 01:11:20;;;;;;;3.10;1.57;;;19.10;84.50;;;-142.21;100.00;112049.66;5073769;28;20506;-77
2022/09/11 01:14:02;;;;;;;3.40;1.60;;;19.20;84.30;;;-142.21;100.00;112049.66;5069368;28;20442;-77
2022/09/11 01:16:40;;;;;;;4.43;1.90;;;19.30;83.90;;;-142.21;100.00;112049.66;5066345;28;20209;-78
2022/09/11 01:19:30;;;;;;;1.73;1.60;;;19.30;83.80;;;-142.21;100.00;112049.66;5071683;28;20613;-77
2022/09/11 01:22:36;;;;;;;3.90;1.70;;;19.40;83.50;;;-142.21;100.00;112049.66;5072666;28;20296;-76
2022/09/11 01:25:26;;;;;;;2.33;1.50;;;19.40;83.40;;;-142.21;100.00;112049.66;5060974;28;20232;-77
2022/09/11 01:27:57;;;;;;;4.17;2.33;;;19.40;82.70;;;-142.21;100.00;112049.66;5073032;28;20475;-78
2022/09/11 01:30:33;;;;;;;4.90;1.87;;;19.40;83.00;;;-142.21;100.00;112049.66;5073052;28;20316;-77
2022/09/11 01:33:18;;;;;;;4.57;2.07;;;19.40;83.30;;;-142.21;100.00;112049.66;5072611;28;20942;-77
2022/09/11 01:35:57;;;;;;;2.20;1.67;;;19.50;83.50;;;-142.21;100.00;112049.66;5072860;28;20531;-77
2022/09/11 01:38:34;;;;;;;6.07;2.20;;;19.50;83.20;;;-142.21;100.00;112049.66;5073179;28;21023;-78
2022/09/11 01:41:08;;;;;;;2.77;1.97;;;19.40;83.00;;;-142.21;100.00;112049.66;5072038;28;20235;-77
2022/09/11 01:43:45;;;;;;;6.43;2.03;;;19.30;83.30;;;-142.21;100.00;112049.66;5073625;28;20193;-76
2022/09/11 01:46:21;;;;;;;2.77;2.00;;;19.30;83.90;;;-142.21;100.00;112049.66;5073117;28;20197;-77
2022/09/11 01:48:59;;;;;;;2.57;1.97;;;19.10;84.10;;;-142.21;100.00;112049.66;5072789;28;20188;-79
2022/09/11 01:51:32;;;;;;;3.50;1.90;;;19.00;84.50;;;-142.21;100.00;112049.66;5073045;28;20208;-77
2022/09/11 01:54:04;;;;;;;3.23;1.97;;;19.10;84.50;;;-142.21;100.00;112049.66;5072144;28;20448;-78
2022/09/11 01:56:37;;;;;;;3.53;1.87;;;19.10;84.60;;;-142.21;100.00;112049.66;5073339;28;20272;-78
2022/09/11 01:59:12;;;;;;;2.87;1.87;;;19.10;84.50;;;-142.21;100.00;112049.66;5072464;28;20253;-78
2022/09/11 02:01:51;;;;;;;2.50;2.07;;;19.10;84.60;;;-142.21;100.00;112049.66;5071170;28;20220;-79
2022/09/11 02:04:23;;;;;;;2.40;1.90;;;19.20;84.50;;;-142.21;100.00;112049.66;5053690;28;20638;-77
2022/09/11 02:06:59;;;;;;;2.20;1.70;;;19.20;84.30;;;-142.21;100.00;112049.66;5072573;28;20424;-78
2022/09/11 02:09:34;;;;;;;3.37;2.13;;;19.20;84.50;;;-142.21;100.00;112049.66;5072407;28;20431;-79
2022/09/11 02:12:08;;;;;;;2.60;1.97;;;19.10;84.60;;;-142.21;100.00;112049.66;5071824;28;20703;-77
2022/09/11 02:14:42;;;;;;;3.13;2.00;;;19.10;84.80;;;-142.21;100.00;112049.66;5072626;28;20566;-77
2022/09/11 02:17:23;;;;;;;5.17;2.10;;;19.10;85.20;;;-142.21;100.00;112049.66;5057298;28;20531;-78
2022/09/11 02:19:54;;;;;;;3.17;2.13;;;19.00;85.30;;;-142.21;100.00;112049.66;5057140;28;20296;-78
2022/09/11 02:22:22;;;;;;;1.93;1.60;;;19.00;85.30;;;-142.21;100.00;112049.66;5072282;28;20746;-78
2022/09/11 02:24:49;;;;;;;3.27;2.17;;;19.10;85.10;;;-142.21;100.00;112049.66;5071631;28;20259;-78
2022/09/11 02:27:26;;;;;;;4.97;2.77;;;19.10;85.10;;;-142.21;100.00;112049.66;5037192;28;20262;-78
2022/09/11 02:29:56;;;;;;;4.27;2.63;;;19.00;85.20;;;-142.21;100.00;112049.66;5057437;28;20653;-78
2022/09/11 02:32:25;;;;;;;3.97;1.83;;;19.00;85.30;;;-142.21;100.00;112049.66;5072768;28;20185;-78
2022/09/11 02:34:54;;;;;;;2.20;1.97;;;19.10;85.10;;;-142.21;100.00;112049.66;5071377;28;20481;-78
2022/09/11 02:37:38;;;;;;;5.10;2.33;;;19.10;85.00;;;-142.21;100.00;112049.66;5071773;28;20450;-79
2022/09/11 02:40:40;;;;;;;3.20;2.10;;;19.20;84.90;;;-142.21;100.00;112049.66;5071667;28;20475;-78
2022/09/11 02:43:38;;;;;;;4.40;1.83;;;19.10;84.80;;;-142.21;100.00;112049.66;5064240;28;20208;-77
2022/09/11 02:46:44;;;;;;;2.10;1.90;;;19.20;84.80;;;-142.21;100.00;112049.66;5071433;28;20442;-78
2022/09/11 02:49:25;;;;;;;4.10;1.93;;;19.30;84.80;;;-142.21;100.00;112049.66;5071665;28;20197;-79
2022/09/11 02:52:08;;;;;;;3.00;2.00;;;19.30;84.20;;;-142.21;100.00;112049.66;5070975;28;20212;-78
2022/09/11 02:54:56;;;;;;;4.93;2.30;;;19.30;83.90;;;-142.21;100.00;112049.66;5071801;28;20197;-78
2022/09/11 02:57:31;;;;;;;3.53;2.20;;;19.40;83.90;;;-142.21;100.00;112049.66;5072367;28;20424;-78
2022/09/11 03:00:02;;;;;;;3.37;2.07;;;19.40;83.70;;;-142.21;100.00;112049.66;5071231;28;20311;-78
2022/09/11 03:02:36;;;;;;;4.73;2.20;;;19.40;83.60;;;-142.21;100.00;112049.66;5071702;28;20193;-78
2022/09/11 03:05:04;;;;;;;3.17;2.00;;;19.50;83.60;;;-142.21;100.00;112049.66;5071423;28;20736;-77
2022/09/11 03:07:32;;;;;;;4.50;2.10;;;19.40;83.50;;;-142.21;100.00;112049.66;5071875;28;20211;-77
2022/09/11 03:10:00;;;;;;;2.57;2.23;;;19.30;83.60;;;-142.21;100.00;112049.66;5070845;28;20267;-78
2022/09/11 03:12:27;;;;;;;3.50;2.23;;;19.30;83.90;;;-142.21;100.00;112049.66;5066729;28;20263;-77
2022/09/11 03:14:55;;;;;;;2.67;2.40;;;19.10;84.30;;;-142.21;100.00;112049.66;5069493;28;20240;-77
2022/09/11 03:17:24;;;;;;;3.70;2.07;;;19.10;84.40;;;-142.21;100.00;112049.66;5066831;28;20479;-77
2022/09/11 03:19:52;;;;;;;4.20;2.60;;;19.20;84.40;;;-142.21;100.00;112049.66;5071131;28;20979;-77
2022/09/11 03:22:20;;;;;;;8.57;2.80;;;19.20;84.10;;;-142.21;100.00;112049.66;5071672;28;20482;-77
2022/09/11 03:24:47;;;;;;;6.60;2.50;;;19.30;84.40;;;-142.21;100.00;112049.66;5070371;28;20504;-77
2022/09/11 03:27:14;;;;;;;2.47;2.00;;;19.30;84.10;;;-142.21;100.00;112049.66;5071695;28;20467;-77
2022/09/11 03:29:41;;;;;;;2.63;2.30;;;19.40;83.80;;;-142.21;100.00;112049.66;5071018;28;20332;-77
2022/09/11 03:32:09;;;;;;;3.23;2.47;;;19.50;83.50;;;-142.21;100.00;112049.66;5071025;28;20201;-77
2022/09/11 03:34:36;;;;;;;4.30;2.63;;;19.50;83.30;;;-142.21;100.00;112049.66;5071882;28;20463;-78
2022/09/11 03:37:04;;;;;;;2.80;2.10;;;19.50;83.40;;;-142.21;100.00;112049.66;5070597;28;20443;-76
2022/09/11 03:39:31;;;;;;;2.90;2.23;;;19.50;83.30;;;-142.21;100.00;112049.66;5071799;28;20240;-78
2022/09/11 03:41:59;;;;;;;2.90;2.23;;;19.60;83.30;;;-142.21;100.00;112049.66;5070896;28;20293;-78
2022/09/11 03:44:27;;;;;;;2.13;1.80;;;19.60;83.20;;;-142.21;100.00;112049.66;5071560;28;20570;-77
2022/09/11 03:46:55;;;;;;;3.30;2.23;;;19.60;83.20;;;-142.21;100.00;112049.66;5070314;28;20292;-78
2022/09/11 03:49:22;;;;;;;3.03;2.07;;;19.50;83.00;;;-142.21;100.00;112049.66;5071366;28;20508;-78
2022/09/11 03:51:49;;;;;;;3.00;2.47;;;19.60;83.20;;;-142.21;100.00;112049.66;5070398;28;20497;-77
2022/09/11 03:54:18;;;;;;;4.77;2.33;;;19.60;82.70;;;-142.21;100.00;112049.66;5071314;28;20232;-78
2022/09/11 03:56:45;;;;;;;5.33;2.63;;;19.60;83.40;;;-142.21;100.00;112049.66;5071616;28;20535;-78
2022/09/11 03:59:12;;;;;;;3.47;2.20;;;19.60;82.80;;;-142.21;100.00;112049.66;5071618;28;20221;-77
2022/09/11 04:01:39;;;;;;;3.07;2.60;;;19.60;82.70;;;-142.21;100.00;112049.66;5070811;28;20214;-78
2022/09/11 04:04:06;;;;;;;3.83;2.57;;;19.60;82.60;;;-142.21;100.00;112049.66;5070722;28;20223;-77
2022/09/11 04:06:34;;;;;;;2.60;2.20;;;19.70;82.80;;;-142.21;100.00;112049.66;5071306;28;20284;-78
2022/09/11 04:09:01;;;;;;;2.83;2.23;;;19.60;82.50;;;-142.21;100.00;112049.66;5070588;28;20498;-76
2022/09/11 04:11:30;;;;;;;4.77;2.33;;;19.70;82.70;;;-142.21;100.00;112049.66;5071549;28;20589;-76
2022/09/11 04:13:58;;;;;;;3.67;2.23;;;19.80;82.40;;;-142.21;100.00;112049.66;5070294;28;20240;-77
2022/09/11 04:16:25;;;;;;;3.73;2.37;;;19.80;82.30;;;-142.21;100.00;112049.66;5070553;28;20245;-76
2022/09/11 04:18:53;;;;;;;6.10;2.77;;;19.80;82.20;;;-142.21;100.00;112049.66;5070264;28;20518;-77
2022/09/11 04:21:20;;;;;;;5.20;2.63;;;19.70;82.10;;;-142.21;100.00;112049.66;5071263;28;20213;-76
2022/09/11 04:23:54;;;;;;;2.47;2.23;;;19.60;82.40;;;-142.21;100.00;112049.66;5070550;28;20198;-77
2022/09/11 04:26:24;;;;;;;2.87;2.57;;;19.60;82.80;;;-142.21;100.00;112049.66;5070805;28;20440;-77
2022/09/11 04:28:52;;;;;;;3.73;2.40;;;19.60;82.80;;;-142.21;100.00;112049.66;5070768;28;20533;-77
2022/09/11 04:31:21;;;;;;;2.80;2.50;;;19.50;82.90;;;-142.21;100.00;112049.66;5070419;28;20530;-76
2022/09/11 04:33:49;;;;;;;6.33;2.77;;;19.50;83.20;;;-142.21;100.00;112049.66;5069936;28;20303;-77
2022/09/11 04:36:20;;;;;;;2.70;2.27;;;19.40;83.50;;;-142.21;100.00;112049.66;5069996;28;20486;-76
2022/09/11 04:38:48;;;;;;;5.40;2.50;;;19.40;83.90;;;-142.21;100.00;112049.66;5074630;28;20209;-77
2022/09/11 04:41:16;;;;;;;2.60;2.40;;;19.30;83.90;;;-142.21;100.00;112049.66;5074520;28;20236;-78
2022/09/11 04:43:43;;;;;;;3.57;2.70;;;19.40;83.90;;;-142.21;100.00;112049.66;5074276;28;20233;-78
2022/09/11 04:46:15;;;;;;;3.27;2.63;;;19.30;83.80;;;-142.21;100.00;112049.66;5073842;28;20522;-78
2022/09/11 04:48:46;;;;;;;4.20;2.40;;;19.40;84.20;;;-142.21;100.00;112049.66;5074011;28;20439;-77
2022/09/11 04:51:21;;;;;;;3.10;2.80;;;19.40;84.00;;;-142.21;100.00;112049.66;5073534;28;20873;-77
2022/09/11 04:53:49;;;;;;;3.03;2.57;;;19.50;84.00;;;-142.21;100.00;112049.66;5074357;28;20222;-77
2022/09/11 04:56:17;;;;;;;3.57;2.30;;;19.50;83.50;;;-142.21;100.00;112049.66;5074263;28;20197;-77
2022/09/11 04:58:44;;;;;;;4.90;2.93;;;19.50;83.40;;;-142.21;100.00;112049.66;5073856;28;20285;-76
2022/09/11 05:01:16;;;;;;;3.57;2.50;;;19.60;83.20;;;-142.21;100.00;112049.66;5073281;28;20478;-76
2022/09/11 05:03:43;;;;;;;3.23;2.30;;;19.60;83.30;;;-142.21;100.00;112049.66;5073520;28;20255;-77
2022/09/11 05:06:15;;;;;;;3.67;2.37;;;19.60;83.40;;;-142.21;100.00;112049.66;5073529;28;20213;-78
2022/09/11 05:08:43;;;;;;;4.07;2.73;;;19.60;83.30;;;-142.21;100.00;112049.66;5073714;28;20456;-78
2022/09/11 05:11:13;;;;;;;4.97;2.90;;;19.60;83.40;;;-142.21;100.00;112049.66;5073329;28;20203;-77
2022/09/11 05:13:41;;;;;;;6.37;2.70;;;19.60;83.30;;;-142.21;100.00;112049.66;5073474;28;20221;-77
2022/09/11 05:16:13;;;;;;;3.83;2.73;;;19.60;83.20;;;-142.21;100.00;112049.66;5065525;28;20202;-76
2022/09/11 05:18:42;;;;;;;3.87;2.73;;;19.60;83.20;;;-142.21;100.00;112049.66;5065359;28;20224;-76
2022/09/11 05:21:14;;;;;;;2.80;2.57;;;19.70;83.30;;;-142.21;100.00;112049.66;5073090;28;20201;-77
2022/09/11 05:23:42;;;;;;;3.50;2.67;;;19.70;83.20;;;-142.21;100.00;112049.66;5073839;28;20240;-78
2022/09/11 05:26:17;;;;;;;3.13;2.67;;;19.70;82.90;;;-142.21;100.00;112049.66;5053934;28;20193;-77
2022/09/11 05:28:45;;;;;;;3.73;2.53;;;19.70;82.90;;;-142.21;100.00;112049.66;5073316;28;20207;-78
2022/09/11 05:31:17;;;;;;;3.40;2.40;;;19.70;82.70;;;-142.21;100.00;112049.66;5072545;28;20681;-77
2022/09/11 05:33:45;;;;;;;5.87;2.80;;;19.70;82.80;;;-142.21;100.00;112049.66;5073543;28;20253;-77
2022/09/11 05:36:15;;;;;;;3.30;2.93;;;19.70;82.80;;;-142.21;100.00;112049.66;5072496;28;20213;-78
2022/09/11 05:38:43;;;;;;;2.80;2.50;;;19.80;82.90;;;-142.21;100.00;112049.66;5073512;28;20292;-78
2022/09/11 05:41:13;;;;;;;3.07;2.77;;;19.80;82.90;;;-142.21;100.00;112049.66;5072864;28;20632;-78
2022/09/11 05:43:42;;;;;;;2.97;2.57;;;19.80;82.90;;;-142.21;100.00;112049.66;5073387;28;20584;-78
2022/09/11 05:46:15;;;;;;;4.87;2.80;;;19.80;82.90;;;-142.21;100.00;112049.66;5071884;28;20450;-78
2022/09/11 05:48:43;;;;;;;5.23;2.73;;;19.90;83.00;;;-142.21;100.00;112049.66;5072660;28;20186;-77
2022/09/11 05:51:13;;;;;;;3.17;2.60;;;19.90;82.70;;;-142.21;100.00;112049.66;5072656;28;20310;-77
2022/09/11 05:53:41;;;;;;;4.73;2.60;;;19.90;82.80;;;-142.21;100.00;112049.66;5072929;28;20200;-76
2022/09/11 05:56:14;;;;;;;4.53;3.00;;;20.00;82.70;;;-142.21;100.00;112049.66;5072432;28;20231;-77
2022/09/11 05:58:42;;;;;;;3.50;3.20;;;19.90;82.30;;;-142.21;100.00;112049.66;5072811;28;20243;-78
2022/09/11 06:01:12;;;;;;;4.93;3.23;;;20.00;82.40;;;-142.21;100.00;112049.66;5071792;28;20229;-77
2022/09/11 06:03:40;;;;;;;5.43;3.50;;;19.90;82.50;;;-142.21;100.00;112049.66;5072580;28;20193;-76
2022/09/11 06:06:12;;;;;;;3.60;3.17;;;19.90;82.60;;;-142.21;100.00;112049.66;5072196;28;20240;-77
2022/09/11 06:08:42;;;;;;;4.07;2.97;;;19.90;82.80;;;-142.21;100.00;112049.66;5072868;28;20254;-77
2022/09/11 06:11:12;;;;;;;7.37;3.30;;;19.90;82.80;;;-142.21;100.00;112049.66;5072261;28;20193;-77
2022/09/11 06:13:42;;;;;;;3.37;2.60;;;19.90;82.80;;;-142.21;100.00;112049.66;5072577;28;20236;-77
2022/09/11 06:16:11;;;;;;;3.53;3.00;;;19.90;82.90;;;-142.21;100.00;112049.66;5064104;28;20717;-78
2022/09/11 06:18:40;;;;;;;5.30;3.37;;;19.90;82.90;;;-142.21;100.00;112049.66;5072593;28;20292;-76
2022/09/11 06:21:11;;;;;;;5.07;3.70;;;19.90;82.90;;;-142.21;100.00;112049.66;5064176;28;20276;-76
2022/09/11 06:23:39;;;;;;;3.10;2.80;;;19.90;82.90;;;-142.21;100.00;112049.66;5052929;28;20194;-77
2022/09/11 06:26:09;;;;;;;3.53;3.03;;;20.00;82.90;;;-142.21;100.00;112049.66;5051986;28;20312;-78
2022/09/11 06:28:37;;;;;;;5.03;3.10;;;20.00;83.10;;;-142.21;100.00;112049.66;5052786;28;20214;-77
2022/09/11 06:31:05;;;;;;;6.03;2.90;;;20.00;82.80;;;-142.21;100.00;112049.66;5051351;28;20313;-76
2022/09/11 06:33:34;;;;;;;4.27;3.03;;;19.90;83.00;;;-142.21;100.00;112049.66;5062378;28;20288;-76
2022/09/11 06:36:07;;;;;;;3.60;3.30;;;19.90;83.20;;;-142.21;100.00;112049.66;5072007;28;20209;-76
2022/09/11 06:38:34;;;;;;;5.00;3.00;;;19.90;83.10;;;-142.21;100.00;112049.66;5072610;28;20281;-77
2022/09/11 06:41:03;;;;;;;4.63;3.10;;;20.00;83.00;;;-142.21;100.00;112049.66;5071797;28;20638;-77
2022/09/11 06:43:32;;;;;;;6.00;3.33;;;20.00;83.20;;;-142.21;100.00;112049.66;5072188;28;20858;-77
2022/09/11 06:46:05;;;;;;;6.30;3.27;;;20.00;83.00;;;-142.21;100.00;112049.66;5071258;28;20563;-74
2022/09/11 06:48:32;;;;;;;4.37;2.80;;;20.00;83.10;;;-142.21;100.00;112049.66;5072426;28;20276;-75
2022/09/11 06:51:04;;;;;;;4.50;3.00;;;20.00;82.60;;;-142.21;100.00;112049.66;5067531;28;20196;-74
2022/09/11 06:53:31;;;;;;;6.20;3.13;;;20.00;83.00;;;-142.21;100.00;112049.66;5052398;28;20236;-76
2022/09/11 06:56:03;;;;;;;4.77;3.33;;;20.00;83.00;;;-142.21;100.00;112049.66;5056293;28;20726;-75
2022/09/11 06:58:31;;;;;;;4.20;3.40;;;20.10;83.30;;;-142.21;100.00;112049.66;5071342;28;20212;-75
2022/09/11 07:01:03;;;;;;;4.33;3.00;;;20.00;83.20;;;-142.21;100.00;112049.66;5070464;28;20256;-76
2022/09/11 07:03:30;;;;;;;3.30;3.00;;;20.00;83.20;;;-142.21;100.00;112049.66;5072152;28;20546;-75
2022/09/11 07:05:58;;;;;;;4.20;3.30;;;20.10;83.10;;;-142.21;100.00;112049.66;5070975;28;20284;-76
2022/09/11 07:08:26;;;;;;;3.50;2.83;;;20.10;83.00;;;-142.21;100.00;112049.66;5071771;28;20564;-76
2022/09/11 07:10:54;;;;;;;4.90;3.10;;;20.10;82.60;;;-142.21;100.00;112049.66;5071834;28;20608;-75
2022/09/11 07:13:23;;;;;;;5.60;3.50;;;20.30;82.60;;;-142.21;100.00;112049.66;5071484;28;20197;-76
2022/09/11 07:16:00;;;;;;;4.10;3.20;;;20.30;82.10;;;-142.21;100.00;112049.66;5071693;28;20656;-76
2022/09/11 07:18:32;;;;;;;6.67;3.40;;;20.40;81.90;;;-142.21;100.00;112049.66;5071934;28;20209;-75
2022/09/11 07:21:00;;;;;;;4.30;3.70;;;20.40;81.50;;;-142.21;100.00;112049.66;5070988;28;20681;-75
2022/09/11 07:23:30;;;;;;;4.37;3.30;;;20.50;81.60;;;-142.21;100.00;112049.66;5070813;28;20205;-76
2022/09/11 07:25:57;;;;;;;4.33;3.90;;;20.60;81.40;;;-142.21;100.00;112049.66;5071788;28;20272;-76
2022/09/11 07:28:25;;;;;;;3.80;3.30;;;20.60;80.90;;;-142.21;100.00;112049.66;5071443;28;20205;-76
2022/09/11 07:30:52;;;;;;;4.00;3.37;;;20.50;81.00;;;-142.21;100.00;112049.66;5070862;28;20313;-76
2022/09/11 07:33:21;;;;;;;3.70;3.37;;;20.50;81.00;;;-142.21;100.00;112049.66;5065013;28;20237;-75
2022/09/11 07:35:48;;;;;;;4.10;3.40;;;20.50;81.40;;;-142.21;100.00;112049.66;5054188;28;20206;-75
2022/09/11 07:38:15;;;;;;;5.33;3.60;;;20.60;81.30;;;-142.21;100.00;112049.66;5071037;28;20295;-75
2022/09/11 07:40:44;;;;;;;4.83;3.77;;;20.70;81.00;;;-142.21;100.00;112049.66;5071443;28;20221;-76
2022/09/11 07:43:12;;;;;;;4.33;3.77;;;20.70;80.30;;;-142.21;100.00;112049.66;5070959;28;20233;-75
2022/09/11 07:45:39;;;;;;;6.47;3.63;;;20.80;80.50;;;-142.21;100.00;112049.66;5071223;28;20258;-76
2022/09/11 07:48:06;;;;;;;4.83;3.50;;;20.70;79.60;;;-142.21;100.00;112049.66;5067007;28;20293;-76
2022/09/11 07:50:33;;;;;;;4.87;3.63;;;20.90;80.20;;;-142.21;100.00;112049.66;5051522;28;20271;-75
2022/09/11 07:53:01;;;;;;;4.57;3.60;;;21.00;79.90;;;-142.21;100.00;112049.66;5069719;28;20289;-75
2022/09/11 07:55:28;;;;;;;4.20;3.50;;;21.10;79.00;;;-142.21;100.00;112049.66;5071680;28;20610;-75
2022/09/11 07:57:57;;;;;;;5.50;3.73;;;21.20;79.10;;;-142.21;99.61;112049.66;5070991;28;20284;-75
2022/09/11 08:00:24;;;;;;;5.83;3.60;;;21.30;79.40;;;-142.21;99.71;112049.66;5071594;28;20311;-75
2022/09/11 08:02:52;;;;;;;4.30;3.80;;;21.40;78.10;;;-142.21;98.45;112049.66;5071086;28;20197;-75
2022/09/11 08:05:19;;;;;;;4.93;3.80;;;21.40;77.40;;;-142.21;98.28;112049.66;5071043;28;20205;-75
2022/09/11 08:07:46;;;;;;;3.90;3.43;;;21.40;78.20;;;-142.21;97.80;112049.66;5071081;28;20291;-76
2022/09/11 08:10:14;;;;;;;3.90;3.43;;;21.40;77.30;;;-142.21;98.28;112049.66;5071066;28;20201;-75
2022/09/11 08:12:42;;;;;;;4.20;3.50;;;21.40;77.30;;;-142.21;98.38;112049.66;5053097;28;20659;-75
2022/09/11 08:15:11;;;;;;;6.30;3.63;;;21.50;77.40;;;-142.21;97.79;112049.66;5071849;28;20721;-76
2022/09/11 08:17:38;;;;;;;4.73;3.70;;;21.40;77.30;;;-142.21;96.99;112049.66;5074534;28;20216;-76
2022/09/11 08:20:06;;;;;;;5.83;3.70;;;21.40;76.60;;;-142.21;97.71;112049.66;5038875;28;20270;-75
2022/09/11 08:22:33;;;;;;;4.37;3.40;;;21.50;77.30;;;-142.21;97.17;112049.66;5074544;28;20205;-79
2022/09/11 08:25:01;;;;;;;3.97;3.30;;;21.60;76.70;;;-142.21;97.16;112049.66;5074299;28;20209;-75
2022/09/11 08:27:28;;;;;;;5.23;4.40;;;21.70;76.40;;;-142.21;95.09;112049.66;5074519;28;20236;-78
2022/09/11 08:29:55;;;;;;;5.13;3.63;;;21.70;75.50;;;-142.21;95.42;112049.66;5073992;28;20763;-77
2022/09/11 08:32:23;;;;;;;4.40;4.00;;;21.90;75.90;;;-142.21;94.41;112049.66;5074187;28;20295;-77
2022/09/11 08:34:51;;;;;;;3.60;3.30;;;22.00;74.80;;;-142.21;93.75;112049.66;5074676;28;20242;-75
2022/09/11 08:37:18;;;;;;;4.40;3.70;;;22.10;74.80;;;-142.21;93.37;112049.66;5073693;28;20213;-78
2022/09/11 08:39:46;;;;;;;4.50;3.93;;;22.10;74.30;;;-142.21;92.95;112049.66;5074213;28;20258;-76
2022/09/11 08:42:16;;;;;;;5.07;3.90;;;22.20;73.90;;;-142.21;92.80;112049.66;5072617;28;20233;-76
2022/09/11 08:44:48;;;;;;;7.50;3.80;;;22.40;73.90;;;-142.21;91.73;112049.66;5074256;28;20264;-76
2022/09/11 08:47:21;;;;;;;4.13;3.53;;;22.50;73.20;;;-142.21;92.13;112049.66;5072903;28;20284;-78
2022/09/11 08:49:59;;;;;;;4.73;4.13;;;22.60;73.00;;;-142.21;90.86;112049.66;5074171;28;20235;-78
2022/09/11 08:52:27;;;;;;;5.17;3.67;;;22.70;72.30;;;-142.21;90.28;112049.66;5073497;28;20193;-77
2022/09/11 08:54:58;;;;;;;3.53;3.10;;;22.90;71.90;;;-142.21;91.33;112049.66;5073995;28;20242;-78
2022/09/11 08:57:38;;;;;;;5.27;3.37;;;23.00;72.50;;;-142.21;88.88;112049.66;5073734;28;20225;-78
2022/09/11 09:00:16;;;;;;;3.73;3.40;;;23.10;71.00;;;-142.21;89.38;112049.66;5073734;28;20247;-78
2022/09/11 09:03:12;;;;;;;3.83;3.53;;;23.10;70.80;;;-142.21;89.18;112049.66;5073741;28;20708;-79
2022/09/11 09:05:48;;;;;;;3.83;3.37;;;23.10;70.30;;;-142.21;89.90;112049.66;5074141;28;20616;-76
2022/09/11 09:08:37;;;;;;;4.97;3.77;;;23.10;71.20;;;-142.21;88.82;112049.66;5073439;28;20201;-76
2022/09/11 09:11:21;;;;;;;4.23;3.83;;;23.10;70.40;;;-142.21;88.30;112049.66;5073398;28;20186;-77
2022/09/11 09:14:12;;;;;;;4.10;3.70;;;22.90;69.40;;;-142.21;89.25;112049.66;5066423;28;20189;-78
2022/09/11 09:16:51;;;;;;;3.90;3.60;;;22.80;70.50;;;-142.21;88.92;112049.66;5073835;28;20185;-77
2022/09/11 09:19:25;;;;;;;5.20;3.60;;;22.90;70.60;;;-142.21;87.48;112049.66;5072726;28;20286;-74
2022/09/11 09:22:07;;;;;;;4.93;3.77;;;23.00;69.70;;;-142.21;87.36;112049.66;5066884;28;20213;-76
2022/09/11 09:24:42;;;;;;;4.23;3.80;;;23.10;69.60;;;-142.21;87.74;112049.66;5055355;28;20285;-75
2022/09/11 09:27:18;;;;;;;4.47;4.03;;;23.10;69.80;;;-142.21;86.68;112049.66;5072840;28;20196;-75
2022/09/11 09:29:53;;;;;;;4.80;3.63;;;23.30;69.30;;;-142.21;84.70;112049.66;5073800;28;20305;-76
2022/09/11 09:32:31;;;;;;;3.40;3.10;;;23.50;68.30;;;-142.21;86.55;112049.66;5061147;28;20279;-75
2022/09/11 09:35:06;;;;;;;4.10;3.70;;;23.40;69.30;;;-142.21;85.56;112049.66;5072826;28;20274;-75
2022/09/11 09:37:36;;;;;;;5.47;3.73;;;23.50;68.40;;;-142.21;84.40;112049.66;5038045;28;20241;-76
2022/09/11 09:40:09;;;;;;;4.00;3.70;;;23.50;67.30;;;-142.21;84.98;112049.66;5071438;28;20286;-75
2022/09/11 09:43:18;;;;;;;6.83;4.00;;;23.30;68.00;;;-142.21;84.76;112049.66;5073266;28;20634;-75
2022/09/11 09:46:09;;;;;;;3.80;3.40;;;23.40;67.90;;;-142.21;84.39;112049.66;5053417;28;20665;-75
2022/09/11 09:48:39;;;;;;;3.50;3.20;;;23.60;67.30;;;-142.21;84.86;112049.66;5057766;28;20711;-77
2022/09/11 09:51:12;;;;;;;4.07;3.67;;;23.50;68.00;;;-142.21;83.40;112049.66;5072713;28;20308;-75
2022/09/11 09:53:48;;;;;;;4.00;3.60;;;23.70;67.60;;;-142.21;81.73;112049.66;5072939;28;20223;-76
2022/09/11 09:56:18;;;;;;;3.70;3.40;;;23.70;66.50;;;-142.21;82.80;112049.66;5072677;28;20224;-76
2022/09/11 09:58:59;;;;;;;4.47;4.07;;;23.80;67.00;;;-142.21;81.57;112049.66;5072757;28;20251;-76
2022/09/11 10:01:48;;;;;;;8.40;3.93;;;24.00;66.40;;;-142.21;79.96;112049.66;5072087;28;20255;-74
2022/09/11 10:04:20;;;;;;;4.83;3.47;;;24.20;65.10;;;-142.21;79.81;112049.66;5052406;28;20308;-75
2022/09/11 10:06:51;;;;;;;4.23;3.83;;;24.40;65.50;;;-142.21;78.04;112049.66;5059654;28;20286;-76
2022/09/11 10:09:28;;;;;;;4.47;4.07;;;24.40;64.40;;;-142.21;76.22;112049.66;5057353;28;20200;-75
2022/09/11 10:12:02;;;;;;;4.33;3.80;;;24.40;63.70;;;-142.21;77.77;112049.66;5070550;28;20192;-76
2022/09/11 10:14:33;;;;;;;4.13;3.73;;;24.40;63.90;;;-142.21;78.67;112049.66;5068953;28;20203;-75